Time;durP1;ratioP1;P1;durP2;ratioP2;P2;SDS_P1;SDS_P2;PMS_P1;PMS_P2;Temp;Humidity;BMP_temperature;BMP_pressure;BME280_temperature;BME280_humidity;BME280_pressure;Samples;Min_cycle;Max_cycle;Signal;HPM_P1;HPM_P2
2021/11/09 00:00:08;;;;;;;41.58;9.25;;;7.80;99.90;;;;;;5042889;28;20368;-62
2021/11/09 00:02:34;;;;;;;32.80;9.00;;;7.70;99.90;;;;;;5047934;28;20029;-60
2021/11/09 00:05:01;;;;;;;32.50;8.80;;;7.80;99.90;;;;;;5041469;28;20025;-60
2021/11/09 00:07:46;;;;;;;32.15;9.52;;;7.70;99.90;;;;;;5049517;28;20024;-61
2021/11/09 00:10:11;;;;;;;30.45;8.50;;;7.70;99.90;;;;;;5043516;28;20029;-59
2021/11/09 00:12:41;;;;;;;41.72;10.60;;;7.70;99.90;;;;;;5046728;28;20083;-59
2021/11/09 00:15:12;;;;;;;26.77;8.65;;;7.70;99.90;;;;;;5049655;28;20048;-61
2021/11/09 00:17:38;;;;;;;32.42;11.07;;;7.60;99.90;;;;;;5045068;28;20025;-59
2021/11/09 00:20:06;;;;;;;29.42;8.98;;;7.60;99.90;;;;;;5048392;28;20025;-59
2021/11/09 00:22:32;;;;;;;34.80;9.30;;;7.60;99.90;;;;;;5050343;28;20032;-59
2021/11/09 00:24:58;;;;;;;32.10;10.85;;;7.50;99.90;;;;;;5050231;28;20040;-58
2021/11/09 00:27:23;;;;;;;30.23;10.05;;;7.50;99.90;;;;;;5041929;28;20033;-62
2021/11/09 00:29:50;;;;;;;39.05;8.90;;;7.50;99.90;;;;;;5030855;28;20028;-60
2021/11/09 00:32:16;;;;;;;28.08;8.05;;;7.50;99.90;;;;;;5045008;28;20112;-60
2021/11/09 00:34:42;;;;;;;34.90;9.30;;;7.40;99.90;;;;;;5047126;28;20028;-59
2021/11/09 00:37:08;;;;;;;28.27;9.63;;;7.30;99.90;;;;;;5045912;28;20052;-60
2021/11/09 00:39:34;;;;;;;24.10;9.23;;;7.30;99.90;;;;;;5047646;28;20683;-61
2021/11/09 00:42:00;;;;;;;36.65;10.05;;;7.20;99.90;;;;;;5028526;28;20055;-59
2021/11/09 00:44:26;;;;;;;33.67;9.25;;;7.20;99.90;;;;;;5049121;28;20561;-61
2021/11/09 00:46:53;;;;;;;27.83;8.43;;;7.10;99.90;;;;;;5045725;28;20158;-59
2021/11/09 00:49:20;;;;;;;27.23;9.25;;;7.10;99.90;;;;;;5045426;28;20045;-56
2021/11/09 00:51:47;;;;;;;32.60;9.27;;;7.10;99.90;;;;;;5046692;28;20571;-59
2021/11/09 00:54:13;;;;;;;34.80;9.73;;;7.10;99.90;;;;;;5046947;28;20044;-61
2021/11/09 00:56:40;;;;;;;37.30;9.50;;;7.10;99.90;;;;;;5046716;28;20752;-60
2021/11/09 00:59:07;;;;;;;27.80;9.32;;;7.00;99.90;;;;;;5047413;28;20070;-61
2021/11/09 01:01:33;;;;;;;37.50;10.07;;;6.90;99.90;;;;;;5048921;28;20024;-62
2021/11/09 01:03:59;;;;;;;27.90;9.43;;;6.80;99.90;;;;;;5047832;28;20041;-59
2021/11/09 01:06:24;;;;;;;33.97;9.45;;;6.80;99.90;;;;;;5048971;28;20029;-60
2021/11/09 01:08:50;;;;;;;38.00;12.10;;;6.70;99.90;;;;;;5046326;28;20040;-59
2021/11/09 01:11:17;;;;;;;32.30;11.57;;;6.60;99.90;;;;;;5047681;28;20033;-62
2021/11/09 01:13:43;;;;;;;39.92;10.65;;;6.50;99.90;;;;;;5046643;28;20071;-62
2021/11/09 01:16:09;;;;;;;24.02;10.00;;;6.50;99.90;;;;;;5039666;28;20404;-54
2021/11/09 01:18:39;;;;;;;30.67;10.68;;;6.50;99.90;;;;;;5046447;28;20025;-60
2021/11/09 01:21:05;;;;;;;29.83;10.15;;;6.50;99.90;;;;;;5046804;28;20397;-61
2021/11/09 01:23:31;;;;;;;37.25;11.07;;;6.50;99.90;;;;;;5049357;28;20103;-60
2021/11/09 01:25:57;;;;;;;35.72;9.98;;;6.60;99.90;;;;;;5048670;28;20021;-61
2021/11/09 01:28:23;;;;;;;41.38;11.10;;;6.60;99.90;;;;;;5047589;28;20029;-62
2021/11/09 01:30:50;;;;;;;42.40;10.30;;;6.60;99.90;;;;;;5047814;28;20036;-60
2021/11/09 01:33:16;;;;;;;33.33;11.10;;;6.60;99.90;;;;;;5048936;28;20033;-59
2021/11/09 01:35:42;;;;;;;45.53;12.80;;;6.60;99.90;;;;;;5039373;28;20025;-62
2021/11/09 01:38:09;;;;;;;32.42;10.13;;;6.70;99.90;;;;;;5035879;28;20029;-56
2021/11/09 01:40:38;;;;;;;24.38;10.75;;;6.70;99.90;;;;;;5046438;28;20029;-60
2021/11/09 01:43:04;;;;;;;29.33;10.35;;;6.70;99.90;;;;;;5049943;28;20082;-61
2021/11/09 01:45:30;;;;;;;34.80;10.68;;;6.70;99.90;;;;;;5051597;28;20509;-60
2021/11/09 01:47:56;;;;;;;37.80;12.40;;;6.70;99.90;;;;;;5051208;28;20029;-59
2021/11/09 01:50:26;;;;;;;30.17;10.50;;;6.70;99.90;;;;;;5051207;28;20029;-59
2021/11/09 01:52:53;;;;;;;36.65;10.98;;;6.60;99.90;;;;;;5050632;28;20053;-59
2021/11/09 01:55:21;;;;;;;36.67;11.82;;;6.60;99.90;;;;;;5050882;28;20103;-61
2021/11/09 01:57:47;;;;;;;35.35;10.45;;;6.60;99.90;;;;;;5048713;28;20021;-59
2021/11/09 02:00:22;;;;;;;46.65;12.52;;;6.50;99.90;;;;;;5048392;28;20037;-58
2021/11/09 02:02:49;;;;;;;50.20;13.05;;;6.50;99.90;;;;;;5050557;28;20112;-60
2021/11/09 02:05:15;;;;;;;31.02;11.38;;;6.40;99.90;;;;;;5051223;28;20051;-61
2021/11/09 02:07:50;;;;;;;43.70;12.95;;;6.40;99.90;;;;;;5050802;28;20064;-60
2021/11/09 02:10:17;;;;;;;33.72;12.18;;;6.40;99.90;;;;;;5045527;28;20482;-59
2021/11/09 02:12:44;;;;;;;38.13;12.25;;;6.30;99.90;;;;;;5048539;28;20055;-60
2021/11/09 02:15:11;;;;;;;37.58;11.57;;;6.30;99.90;;;;;;5053267;28;20033;-60
2021/11/09 02:17:42;;;;;;;37.05;11.57;;;6.30;99.90;;;;;;5048271;28;20565;-60
2021/11/09 02:20:10;;;;;;;33.47;11.88;;;6.20;99.90;;;;;;5051555;28;20048;-56
2021/11/09 02:22:37;;;;;;;43.35;11.57;;;6.20;99.90;;;;;;5052324;28;20850;-60
2021/11/09 02:25:06;;;;;;;39.38;12.05;;;6.20;99.90;;;;;;5049593;28;20025;-61
2021/11/09 02:27:32;;;;;;;40.97;13.02;;;6.30;99.90;;;;;;5047547;28;20191;-60
2021/11/09 02:29:58;;;;;;;38.85;12.43;;;6.30;99.90;;;;;;5040013;28;20147;-58
2021/11/09 02:32:24;;;;;;;42.25;11.52;;;6.20;99.90;;;;;;5045330;28;20029;-61
2021/11/09 02:34:49;;;;;;;37.78;13.18;;;6.20;99.90;;;;;;5052120;28;20122;-61
2021/11/09 02:37:16;;;;;;;41.55;12.40;;;6.20;99.90;;;;;;5047263;28;20056;-58
2021/11/09 02:39:42;;;;;;;44.60;12.95;;;6.20;99.90;;;;;;5046417;28;20025;-59
2021/11/09 02:42:15;;;;;;;42.03;14.20;;;6.20;99.90;;;;;;5048342;28;20083;-59
2021/11/09 02:45:07;;;;;;;44.83;12.35;;;6.10;99.90;;;;;;5042620;28;20051;-59
2021/11/09 02:47:48;;;;;;;38.67;11.60;;;6.10;99.90;;;;;;5040910;28;20045;-61
2021/11/09 02:50:16;;;;;;;33.38;11.10;;;6.00;99.90;;;;;;5044883;28;20438;-60
2021/11/09 02:52:52;;;;;;;38.50;11.52;;;5.90;99.90;;;;;;5048785;28;20458;-61
2021/11/09 02:55:20;;;;;;;30.75;11.55;;;5.80;99.90;;;;;;5052416;28;20033;-58
2021/11/09 02:57:53;;;;;;;48.53;13.10;;;5.70;99.90;;;;;;5051365;28;20368;-60
2021/11/09 03:00:41;;;;;;;39.58;11.25;;;5.70;99.90;;;;;;5050902;28;20037;-60
2021/11/09 03:03:13;;;;;;;127.38;12.93;;;5.70;99.90;;;;;;5046130;28;20035;-60
2021/11/09 03:08:37;;;;;;;72.72;11.55;;;5.70;99.90;;;;;;5050970;28;20118;-60
2021/11/09 03:11:04;;;;;;;31.95;11.30;;;5.60;99.90;;;;;;5040369;28;20452;-59
2021/11/09 03:13:30;;;;;;;40.40;10.77;;;5.50;99.90;;;;;;5050472;28;20037;-61
2021/11/09 03:16:01;;;;;;;28.73;10.15;;;5.40;99.90;;;;;;5049240;28;20074;-59
2021/11/09 03:18:28;;;;;;;26.33;10.55;;;5.40;99.90;;;;;;5050216;28;20032;-60
2021/11/09 03:45:21;;;;;;;45.30;12.88;;;5.00;99.90;;;;;;5045321;28;20083;-60
2021/11/09 03:47:51;;;;;;;45.30;13.43;;;5.00;99.90;;;;;;5050548;28;20028;-61
2021/11/09 03:50:18;;;;;;;43.42;13.75;;;5.00;99.90;;;;;;5050348;28;20037;-61
2021/11/09 03:52:49;;;;;;;47.97;15.88;;;5.00;99.90;;;;;;5050681;28;20073;-57
2021/11/09 03:55:25;;;;;;;33.65;13.45;;;5.00;99.90;;;;;;5050002;28;20372;-59
2021/11/09 03:58:05;;;;;;;46.78;16.77;;;4.90;99.90;;;;;;5047120;28;20040;-59
2021/11/09 04:00:39;;;;;;;40.17;13.73;;;4.90;99.90;;;;;;5048019;28;20494;-60
2021/11/09 04:05:45;;;;;;;46.17;12.65;;;4.80;99.90;;;;;;5049913;28;20039;-60
2021/11/09 04:10:53;;;;;;;40.15;13.23;;;4.80;99.90;;;;;;5050376;28;20127;-60
2021/11/09 04:15:54;;;;;;;32.85;11.50;;;4.80;99.90;;;;;;5046663;28;20485;-61
2021/11/09 04:18:46;;;;;;;44.13;13.63;;;4.70;99.90;;;;;;5045934;28;20035;-51
2021/11/09 04:21:27;;;;;;;31.48;11.68;;;4.70;99.90;;;;;;5050567;28;20029;-59
2021/11/09 04:24:20;;;;;;;40.25;14.30;;;4.60;99.90;;;;;;5049802;28;20601;-61
2021/11/09 04:27:09;;;;;;;36.72;12.52;;;4.60;99.90;;;;;;5040406;28;20437;-60
2021/11/09 04:32:12;;;;;;;33.70;12.60;;;4.50;99.90;;;;;;5042097;28;20044;-60
2021/11/09 04:49:02;;;;;;;41.42;13.88;;;4.50;99.90;;;;;;5034590;28;20090;-57
2021/11/09 05:09:51;;;;;;;29.48;12.10;;;4.40;99.90;;;;;;5042665;28;20410;-60
2021/11/09 05:12:17;;;;;;;42.33;13.38;;;4.40;99.90;;;;;;5043007;28;20033;-60
2021/11/09 05:14:42;;;;;;;34.88;13.82;;;4.40;99.90;;;;;;5046629;28;20029;-60
2021/11/09 05:17:08;;;;;;;47.60;16.42;;;4.30;99.90;;;;;;5054138;28;20029;-60
2021/11/09 05:19:33;;;;;;;32.40;14.10;;;4.30;99.90;;;;;;5050493;28;20108;-61
2021/11/09 05:21:59;;;;;;;34.63;16.67;;;4.40;99.90;;;;;;5047972;28;20015;-61
2021/11/09 05:24:25;;;;;;;38.90;15.95;;;4.40;99.90;;;;;;5047792;28;20059;-60
2021/11/09 05:26:50;;;;;;;43.15;16.48;;;4.50;99.90;;;;;;5048261;28;20025;-60
2021/11/09 05:29:16;;;;;;;39.25;14.75;;;4.50;99.90;;;;;;5045533;28;20029;-61
2021/11/09 05:31:42;;;;;;;47.70;14.27;;;4.50;99.90;;;;;;5047373;28;20033;-61
2021/11/09 05:34:10;;;;;;;35.67;13.98;;;4.60;99.90;;;;;;5044113;28;20026;-61
2021/11/09 05:36:38;;;;;;;38.83;14.98;;;4.50;99.90;;;;;;5044800;28;20075;-59
2021/11/09 05:41:36;;;;;;;40.88;14.52;;;4.50;99.90;;;;;;5051517;28;20112;-60
2021/11/09 05:44:03;;;;;;;41.45;14.77;;;4.40;99.90;;;;;;5050967;28;20037;-60
2021/11/09 05:46:28;;;;;;;53.83;16.90;;;4.40;99.90;;;;;;5050191;28;20060;-61
2021/11/09 05:48:54;;;;;;;42.13;15.70;;;4.40;99.90;;;;;;5045000;28;20056;-59
2021/11/09 05:51:20;;;;;;;46.58;15.77;;;4.50;99.90;;;;;;5047709;28;20037;-61
2021/11/09 05:53:47;;;;;;;48.00;17.08;;;4.50;99.90;;;;;;5045159;28;20096;-60
2021/11/09 05:56:13;;;;;;;43.63;15.63;;;4.60;99.90;;;;;;5047884;28;20063;-60
2021/11/09 05:58:38;;;;;;;34.95;13.05;;;4.50;99.90;;;;;;5050106;28;20025;-60
2021/11/09 06:01:04;;;;;;;38.53;14.23;;;4.40;99.90;;;;;;5047455;28;20044;-61
2021/11/09 06:03:30;;;;;;;42.03;15.80;;;4.40;99.90;;;;;;5048319;28;20037;-60
2021/11/09 06:05:55;;;;;;;34.30;12.43;;;4.30;99.90;;;;;;5041337;28;20028;-60
2021/11/09 06:08:21;;;;;;;31.33;11.85;;;4.20;99.90;;;;;;5046213;28;20052;-50
2021/11/09 06:10:48;;;;;;;29.50;12.45;;;4.10;99.90;;;;;;5045189;28;20055;-60
2021/11/09 06:13:14;;;;;;;38.17;13.65;;;4.00;99.90;;;;;;5046837;28;20033;-61
2021/11/09 06:15:40;;;;;;;38.55;13.60;;;4.00;99.90;;;;;;5044711;28;20035;-61
2021/11/09 06:18:06;;;;;;;34.40;13.05;;;4.00;99.90;;;;;;5050479;28;20044;-60
2021/11/09 06:20:32;;;;;;;34.65;13.40;;;4.00;99.90;;;;;;5046079;28;20025;-59
2021/11/09 06:22:58;;;;;;;28.67;14.23;;;4.00;99.90;;;;;;5039525;28;20041;-58
2021/11/09 06:25:24;;;;;;;41.28;14.40;;;4.00;99.90;;;;;;5046506;28;20371;-60
2021/11/09 06:27:51;;;;;;;32.97;14.48;;;4.10;99.90;;;;;;5041326;28;20454;-60
2021/11/09 06:30:16;;;;;;;50.65;15.70;;;4.10;99.90;;;;;;5048165;28;20111;-57
2021/11/09 06:32:42;;;;;;;30.77;13.88;;;4.10;99.90;;;;;;5042869;28;20577;-58
2021/11/09 06:35:08;;;;;;;27.58;11.93;;;4.20;99.90;;;;;;5050065;28;20402;-59
2021/11/09 06:37:34;;;;;;;34.30;12.38;;;4.10;99.90;;;;;;5049355;28;20068;-60
2021/11/09 06:40:01;;;;;;;28.92;10.95;;;4.10;99.90;;;;;;5042569;28;20056;-58
2021/11/09 06:42:27;;;;;;;25.48;10.55;;;4.00;99.90;;;;;;5042862;28;20478;-59
2021/11/09 06:44:53;;;;;;;28.40;10.32;;;4.00;99.90;;;;;;5048245;28;20032;-59
2021/11/09 06:47:18;;;;;;;22.58;9.75;;;3.90;99.90;;;;;;5040053;28;20494;-61
2021/11/09 06:49:44;;;;;;;29.63;10.77;;;3.90;99.90;;;;;;5049745;28;20626;-58
2021/11/09 06:52:10;;;;;;;21.33;8.93;;;3.90;99.90;;;;;;5045105;28;20029;-60
2021/11/09 06:54:36;;;;;;;26.05;10.25;;;3.80;99.90;;;;;;5047723;28;20043;-59
2021/11/09 06:57:03;;;;;;;36.75;13.38;;;3.80;99.90;;;;;;5048209;28;20032;-58
2021/11/09 06:59:28;;;;;;;29.25;12.98;;;3.90;99.90;;;;;;5044658;28;20029;-59
2021/11/09 07:01:54;;;;;;;32.55;11.50;;;4.00;99.90;;;;;;5043308;28;20090;-59
2021/11/09 07:04:20;;;;;;;29.75;13.00;;;4.00;99.90;;;;;;5049723;28;20111;-54
2021/11/09 07:06:46;;;;;;;28.38;13.43;;;4.10;99.90;;;;;;5042241;28;20032;-58
2021/11/09 07:09:13;;;;;;;31.33;12.23;;;4.10;99.90;;;;;;5041969;28;20037;-60
2021/11/09 07:11:39;;;;;;;28.50;11.90;;;4.20;99.90;;;;;;5042889;28;20037;-58
2021/11/09 07:14:06;;;;;;;29.80;12.05;;;4.20;99.90;;;;;;5047777;28;20021;-60
2021/11/09 07:16:31;;;;;;;20.83;10.60;;;4.30;99.90;;;;;;5046822;28;20149;-60
2021/11/09 07:19:02;;;;;;;33.17;11.02;;;4.40;99.90;;;;;;5049517;28;20522;-59
2021/11/09 07:21:28;;;;;;;35.75;11.77;;;4.40;99.90;;;;;;5044926;28;20028;-59
2021/11/09 07:23:54;;;;;;;27.35;10.60;;;4.50;99.90;;;;;;5047814;28;20103;-58
2021/11/09 07:26:20;;;;;;;27.98;10.50;;;4.50;99.90;;;;;;5043180;28;20076;-59
2021/11/09 07:28:46;;;;;;;35.22;10.57;;;4.60;99.90;;;;;;5046720;28;20021;-59
2021/11/09 07:31:15;;;;;;;40.28;13.07;;;4.60;99.90;;;;;;5043179;28;20037;-55
2021/11/09 07:33:40;;;;;;;28.35;14.02;;;4.60;99.90;;;;;;5041751;28;20041;-57
2021/11/09 07:36:06;;;;;;;30.63;13.13;;;4.60;99.90;;;;;;5043878;28;20043;-59
2021/11/09 07:38:32;;;;;;;30.92;16.77;;;4.70;99.90;;;;;;5044543;28;20025;-58
2021/11/09 07:40:58;;;;;;;35.35;14.82;;;4.70;99.90;;;;;;5044369;28;20483;-59
2021/11/09 07:43:24;;;;;;;26.95;11.02;;;4.70;99.90;;;;;;5046320;28;20454;-60
2021/11/09 07:45:49;;;;;;;31.83;12.35;;;4.80;99.90;;;;;;5042448;28;20120;-60
2021/11/09 07:48:15;;;;;;;33.70;11.27;;;4.90;99.90;;;;;;5043928;28;20048;-59
2021/11/09 07:50:41;;;;;;;24.60;10.65;;;5.00;99.90;;;;;;5045102;28;20482;-60
2021/11/09 07:53:12;;;;;;;22.48;10.55;;;5.00;99.90;;;;;;5041060;28;20037;-59
2021/11/09 07:55:39;;;;;;;30.17;10.70;;;5.10;99.90;;;;;;5044391;28;20107;-58
2021/11/09 07:58:11;;;;;;;41.53;15.73;;;5.20;99.90;;;;;;5045250;28;20025;-60
2021/11/09 08:00:39;;;;;;;77.88;29.05;;;5.20;99.90;;;;;;5024565;28;20441;-61
2021/11/09 08:03:34;;;;;;;58.25;23.83;;;5.30;99.90;;;;;;5043530;28;20044;-60
2021/11/09 08:06:10;;;;;;;74.43;26.75;;;5.40;99.90;;;;;;5049118;28;20057;-60
2021/11/09 08:08:45;;;;;;;68.38;24.40;;;5.50;99.90;;;;;;5046554;28;20032;-61
2021/11/09 08:11:11;;;;;;;49.20;20.33;;;5.50;99.90;;;;;;5046598;28;20037;-60
2021/11/09 08:13:37;;;;;;;35.13;13.82;;;5.60;99.90;;;;;;5042099;28;20047;-59
2021/11/09 08:16:03;;;;;;;33.95;14.50;;;5.70;99.90;;;;;;5041441;28;20037;-60
2021/11/09 08:18:28;;;;;;;31.83;13.00;;;5.80;99.90;;;;;;5044703;28;20083;-59
2021/11/09 08:20:54;;;;;;;25.60;11.30;;;5.80;99.90;;;;;;5043358;28;20112;-61
2021/11/09 08:23:19;;;;;;;21.88;8.65;;;5.80;99.90;;;;;;5044788;28;20108;-58
2021/11/09 08:25:46;;;;;;;24.98;9.55;;;5.80;99.90;;;;;;5048973;28;20439;-57
2021/11/09 08:28:12;;;;;;;23.55;9.18;;;5.80;99.90;;;;;;5040085;28;20041;-60
2021/11/09 08:30:38;;;;;;;23.65;11.18;;;5.90;99.90;;;;;;5019691;28;20055;-61
2021/11/09 08:33:04;;;;;;;28.05;9.23;;;5.90;99.90;;;;;;5041582;28;20411;-59
2021/11/09 08:35:31;;;;;;;20.60;9.10;;;5.90;99.90;;;;;;5041904;28;20551;-60
2021/11/09 08:37:56;;;;;;;23.67;9.40;;;6.00;99.90;;;;;;5043730;28;20048;-61
2021/11/09 08:40:23;;;;;;;25.88;10.23;;;6.10;99.90;;;;;;5039071;28;20060;-57
2021/11/09 08:42:55;;;;;;;25.25;11.85;;;6.10;99.90;;;;;;5043272;28;20029;-59
2021/11/09 08:47:54;;;;;;;19.85;6.60;;;6.20;99.90;;;;;;5048230;28;20093;-57
2021/11/09 08:50:23;;;;;;;29.25;8.70;;;6.20;99.90;;;;;;5035160;28;20061;-59
2021/11/09 08:52:49;;;;;;;20.40;6.97;;;6.30;99.90;;;;;;5035181;28;20542;-58
2021/11/09 09:06:01;;;;;;;15.25;6.82;;;6.60;99.90;;;;;;5049277;28;20125;-59
2021/11/09 09:08:26;;;;;;;17.33;7.88;;;6.60;99.90;;;;;;5043642;28;20436;-61
2021/11/09 09:10:52;;;;;;;12.02;6.70;;;6.70;99.90;;;;;;5047731;28;20425;-59
2021/11/09 09:13:18;;;;;;;12.02;6.60;;;6.70;99.90;;;;;;5043917;28;20925;-59
2021/11/09 09:15:44;;;;;;;17.13;6.22;;;6.80;99.90;;;;;;5029703;28;20036;-58
2021/11/09 09:18:09;;;;;;;14.05;6.50;;;6.90;99.90;;;;;;5035913;28;20079;-57
2021/11/09 09:20:44;;;;;;;18.15;6.80;;;7.00;99.90;;;;;;5042131;28;20471;-59
2021/11/09 09:23:14;;;;;;;15.80;6.32;;;7.20;99.90;;;;;;5039558;28;20449;-59
2021/11/09 09:57:24;;;;;;;14.85;5.75;;;9.70;99.90;;;;;;5045829;28;20029;-60
2021/11/09 09:59:54;;;;;;;16.20;5.25;;;9.70;99.90;;;;;;5041438;28;20033;-59
2021/11/09 10:02:24;;;;;;;15.93;5.70;;;9.70;99.90;;;;;;5045565;28;20045;-59
2021/11/09 10:04:52;;;;;;;11.25;5.03;;;9.70;99.90;;;;;;5045179;28;20020;-54
2021/11/09 10:07:33;;;;;;;14.68;5.32;;;9.80;99.90;;;;;;5051449;28;20166;-59
2021/11/09 10:10:01;;;;;;;13.60;4.75;;;9.80;99.90;;;;;;5046712;28;20029;-59
2021/11/09 10:12:34;;;;;;;17.88;6.10;;;9.90;99.90;;;;;;5039753;28;20028;-53
2021/11/09 10:15:08;;;;;;;12.75;4.45;;;10.00;99.90;;;;;;5046418;28;20026;-58
2021/11/09 10:17:34;;;;;;;;;;;10.00;99.90;;;;;;5051523;28;20088;-60
2021/11/09 10:20:12;;;;;;;13.40;4.70;;;10.00;99.90;;;;;;5049714;28;19920;-60
2021/11/09 10:22:39;;;;;;;16.70;4.35;;;10.10;99.90;;;;;;5050146;28;20466;-60
2021/11/09 10:25:09;;;;;;;12.05;5.25;;;10.20;99.90;;;;;;5020760;28;20087;-60
2021/11/09 10:27:36;;;;;;;11.98;4.38;;;10.30;99.90;;;;;;5044844;28;20025;-60
2021/11/09 10:30:12;;;;;;;13.88;4.47;;;10.30;99.90;;;;;;5047630;28;20037;-59
2021/11/09 10:32:38;;;;;;;11.38;4.35;;;10.40;99.90;;;;;;5046153;28;20052;-61
2021/11/09 10:35:06;;;;;;;11.85;3.85;;;10.50;99.90;;;;;;5043912;28;20367;-62
2021/11/09 10:37:34;;;;;;;14.23;3.65;;;10.50;99.90;;;;;;5052148;28;20017;-61
2021/11/09 10:40:06;;;;;;;13.07;4.55;;;10.60;99.90;;;;;;5044250;28;20021;-60
2021/11/09 10:42:37;;;;;;;10.20;4.03;;;10.70;99.90;;;;;;5049243;28;20021;-61
2021/11/09 10:45:10;;;;;;;19.95;4.88;;;10.70;99.90;;;;;;5040319;28;20033;-60
2021/11/09 10:47:38;;;;;;;15.32;4.00;;;10.70;99.90;;;;;;5045441;28;20749;-60
2021/11/09 10:50:22;;;;;;;10.02;3.95;;;10.80;99.90;;;;;;5047726;28;20028;-60
2021/11/09 10:53:12;;;;;;;16.98;4.35;;;10.80;99.90;;;;;;5061688;28;20033;-59
2021/11/09 10:56:00;;;;;;;12.68;4.60;;;10.80;99.90;;;;;;5047982;28;20044;-59
2021/11/09 10:58:40;;;;;;;15.90;4.15;;;10.80;99.90;;;;;;5042242;28;20029;-54
2021/11/09 11:06:18;;;;;;;14.98;4.70;;;11.00;99.90;;;;;;5044670;28;20087;-59
2021/11/09 11:08:46;;;;;;;20.80;5.18;;;11.00;99.90;;;;;;5050813;28;20021;-61
2021/11/09 11:11:17;;;;;;;13.95;4.13;;;11.00;99.90;;;;;;5043524;28;20037;-61
2021/11/09 11:13:42;;;;;;;16.27;4.50;;;11.00;99.90;;;;;;5045261;28;20055;-61
2021/11/09 11:16:10;;;;;;;13.15;3.80;;;11.00;99.90;;;;;;5050633;28;20739;-60
2021/11/09 11:18:38;;;;;;;11.27;4.53;;;10.90;99.90;;;;;;5048266;28;20104;-61
2021/11/09 11:21:04;;;;;;;21.95;8.57;;;11.00;99.90;;;;;;5044700;28;20033;-61
2021/11/09 11:23:30;;;;;;;11.88;4.75;;;11.00;99.90;;;;;;5049051;28;20686;-60
2021/11/09 11:25:58;;;;;;;22.63;7.88;;;10.90;99.90;;;;;;5051341;28;20104;-62
2021/11/09 11:28:25;;;;;;;15.05;5.00;;;11.00;99.90;;;;;;5049640;28;20056;-56
2021/11/09 11:30:53;;;;;;;33.58;12.70;;;10.90;99.90;;;;;;5051085;28;20032;-60
2021/11/09 11:33:18;;;;;;;19.42;7.80;;;10.90;99.90;;;;;;5037921;28;20235;-61
2021/11/09 11:35:46;;;;;;;23.45;11.32;;;11.00;99.90;;;;;;5047805;28;20115;-60
2021/11/09 11:38:12;;;;;;;13.27;5.20;;;11.00;99.90;;;;;;5045842;28;20045;-61
2021/11/09 11:40:38;;;;;;;8.63;3.20;;;11.00;99.90;;;;;;5044648;28;20028;-61
2021/11/09 11:43:04;;;;;;;10.88;3.05;;;11.00;99.90;;;;;;5023272;28;20071;-58
2021/11/09 11:45:45;;;;;;;8.65;2.75;;;11.00;99.90;;;;;;5049503;28;20038;-60
2021/11/09 11:48:11;;;;;;;16.70;3.67;;;11.00;99.90;;;;;;5041897;28;20103;-59
2021/11/09 11:50:41;;;;;;;7.38;2.75;;;11.00;99.90;;;;;;5045871;28;20036;-60
2021/11/09 11:53:07;;;;;;;9.23;2.25;;;10.90;99.90;;;;;;5047431;28;20033;-62
2021/11/09 11:55:34;;;;;;;8.52;2.58;;;10.90;99.90;;;;;;5049740;28;20048;-61
2021/11/09 11:58:07;;;;;;;8.77;3.05;;;10.90;99.90;;;;;;5047973;28;20047;-60
2021/11/09 12:00:41;;;;;;;6.43;2.70;;;10.80;99.80;;;;;;5045249;28;20013;-60
2021/11/09 12:03:18;;;;;;;5.53;2.28;;;10.80;99.90;;;;;;5041469;28;20033;-61
2021/11/09 12:05:46;;;;;;;13.57;2.42;;;10.80;99.70;;;;;;5046001;28;20402;-61
2021/11/09 12:08:14;;;;;;;6.53;2.10;;;10.80;99.90;;;;;;5042919;28;20116;-59
2021/11/09 12:10:52;;;;;;;8.23;3.00;;;10.80;99.90;;;;;;5046243;28;20025;-61
2021/11/09 12:13:20;;;;;;;7.43;2.17;;;10.70;99.90;;;;;;5045878;28;20186;-60
2021/11/09 12:16:03;;;;;;;8.43;2.33;;;10.70;99.70;;;;;;5049568;28;20017;-59
2021/11/09 12:18:31;;;;;;;4.35;2.17;;;10.80;99.50;;;;;;5047603;28;20029;-60
2021/11/09 12:21:24;;;;;;;11.10;3.03;;;10.80;99.30;;;;;;5041331;28;20075;-62
2021/11/09 12:24:11;;;;;;;7.57;2.35;;;10.80;99.60;;;;;;5030690;28;20037;-58
2021/11/09 12:26:40;;;;;;;6.30;1.80;;;10.70;99.90;;;;;;5039110;28;20543;-59
2021/11/09 12:29:44;;;;;;;3.42;1.80;;;10.80;99.30;;;;;;5045158;28;20029;-61
2021/11/09 12:32:28;;;;;;;7.50;3.08;;;10.80;99.40;;;;;;5042231;28;20046;-61
2021/11/09 12:35:15;;;;;;;5.80;2.30;;;10.70;99.50;;;;;;5039894;28;20030;-59
2021/11/09 12:37:43;;;;;;;7.35;2.50;;;10.70;99.50;;;;;;5046778;28;20025;-61
2021/11/09 12:40:33;;;;;;;5.97;2.63;;;10.70;99.40;;;;;;5038490;28;20075;-60
2021/11/09 12:43:12;;;;;;;6.00;1.95;;;10.70;99.60;;;;;;5043797;28;20043;-60
2021/11/09 12:45:45;;;;;;;11.88;2.83;;;10.70;99.10;;;;;;5046332;28;20032;-60
2021/11/09 12:48:17;;;;;;;12.55;4.25;;;10.70;99.10;;;;;;5044558;28;20108;-60
2021/11/09 12:50:47;;;;;;;11.05;4.32;;;10.60;98.90;;;;;;5032721;28;20051;-60
2021/11/09 12:53:14;;;;;;;7.82;2.80;;;10.60;98.70;;;;;;5040648;28;20024;-61
2021/11/09 12:55:41;;;;;;;10.88;2.83;;;10.60;99.40;;;;;;5048865;28;20036;-60
2021/11/09 12:58:21;;;;;;;8.85;3.03;;;10.60;99.90;;;;;;5045704;28;20124;-63
2021/11/09 13:01:19;;;;;;;5.50;2.38;;;10.60;98.90;;;;;;5045981;28;20035;-61
2021/11/09 13:03:56;;;;;;;5.90;2.83;;;10.60;99.00;;;;;;5036731;28;20487;-61
2021/11/09 13:06:38;;;;;;;8.32;2.17;;;10.60;99.30;;;;;;5048264;28;20501;-60
2021/11/09 13:09:09;;;;;;;9.48;3.08;;;10.60;99.60;;;;;;5046128;28;20024;-61
2021/11/09 13:11:39;;;;;;;8.15;4.55;;;10.60;99.40;;;;;;5049204;28;20108;-60
2021/11/09 13:14:07;;;;;;;8.65;2.70;;;10.60;99.90;;;;;;5043872;28;20036;-59
2021/11/09 13:16:33;;;;;;;20.10;6.63;;;10.60;99.90;;;;;;5048065;28;20032;-59
2021/11/09 13:19:05;;;;;;;10.40;4.10;;;10.60;99.90;;;;;;5045672;28;20576;-60
2021/11/09 13:21:32;;;;;;;9.98;3.90;;;10.60;99.90;;;;;;5048160;28;20571;-59
2021/11/09 13:23:57;;;;;;;7.70;2.42;;;10.60;99.90;;;;;;5043903;28;20720;-61
2021/11/09 13:26:23;;;;;;;10.95;3.22;;;10.60;99.90;;;;;;5047895;28;20025;-62
2021/11/09 13:28:49;;;;;;;5.50;2.63;;;10.60;99.90;;;;;;5045549;28;20079;-61
2021/11/09 13:31:15;;;;;;;8.18;2.95;;;10.60;99.90;;;;;;5048381;28;20025;-59
2021/11/09 13:33:44;;;;;;;11.30;3.10;;;10.60;99.90;;;;;;5041471;28;20056;-60
2021/11/09 13:36:10;;;;;;;9.18;3.28;;;10.60;99.90;;;;;;5049447;28;20017;-59
2021/11/09 13:38:39;;;;;;;7.75;3.03;;;10.60;99.90;;;;;;5049614;28;20025;-60
2021/11/09 13:41:18;;;;;;;5.53;2.60;;;10.50;99.90;;;;;;5048840;28;20565;-60
2021/11/09 13:43:51;;;;;;;8.18;2.90;;;10.50;99.90;;;;;;5050578;28;20036;-59
2021/11/09 13:46:32;;;;;;;7.82;2.97;;;10.50;99.90;;;;;;5045088;28;20036;-61
2021/11/09 13:49:01;;;;;;;8.23;2.55;;;10.50;99.90;;;;;;5049654;28;20441;-62
2021/11/09 13:51:32;;;;;;;7.80;2.88;;;10.40;99.90;;;;;;5054979;28;20043;-60
2021/11/09 13:54:14;;;;;;;7.68;3.60;;;10.40;99.90;;;;;;5050926;28;20615;-57
2021/11/09 13:56:44;;;;;;;7.47;2.67;;;10.40;99.90;;;;;;5051596;28;20048;-60
2021/11/09 13:59:11;;;;;;;8.32;3.22;;;10.30;99.90;;;;;;5045561;28;20036;-60
2021/11/09 14:02:18;;;;;;;6.15;3.25;;;10.30;99.90;;;;;;5027010;28;20037;-61
2021/11/09 14:18:30;;;;;;;8.30;2.20;;;10.10;99.90;;;;;;5033434;28;20079;-61
2021/11/09 14:21:02;;;;;;;9.88;2.40;;;10.00;99.90;;;;;;5050779;28;20033;-60
2021/11/09 14:23:34;;;;;;;6.28;2.33;;;10.10;99.90;;;;;;5050927;28;20060;-62
2021/11/09 14:26:20;;;;;;;7.90;2.03;;;10.00;99.90;;;;;;5047265;28;20037;-62
2021/11/09 14:28:46;;;;;;;12.70;3.03;;;10.00;99.90;;;;;;5045198;28;20025;-62
2021/11/09 14:31:26;;;;;;;8.32;3.17;;;10.00;99.90;;;;;;5049120;28;20449;-61
2021/11/09 14:34:12;;;;;;;6.15;2.28;;;10.00;99.90;;;;;;5045315;28;20033;-61
2021/11/09 14:36:39;;;;;;;8.25;2.80;;;9.90;99.90;;;;;;5036697;28;20050;-61
2021/11/09 14:39:15;;;;;;;9.55;2.83;;;9.90;99.90;;;;;;5043333;28;20044;-62
2021/11/09 14:47:40;;;;;;;7.05;2.28;;;9.90;99.90;;;;;;5046371;28;20119;-62
2021/11/09 14:50:12;;;;;;;12.32;2.75;;;9.90;99.90;;;;;;5042782;28;20040;-60
2021/11/09 14:52:40;;;;;;;12.55;4.40;;;9.90;99.90;;;;;;5042855;28;20029;-64
2021/11/09 14:55:25;;;;;;;8.95;2.35;;;9.80;99.90;;;;;;5032900;28;20021;-59
2021/11/09 14:57:51;;;;;;;4.50;2.10;;;9.80;99.90;;;;;;5040838;28;20025;-61
2021/11/09 15:00:19;;;;;;;8.63;3.47;;;9.80;99.90;;;;;;5049008;28;20017;-61
2021/11/09 15:02:45;;;;;;;29.20;15.75;;;9.70;99.90;;;;;;5035460;28;20202;-62
2021/11/09 15:05:19;;;;;;;12.27;6.05;;;9.70;99.90;;;;;;5038141;28;20519;-61
2021/11/09 15:07:58;;;;;;;19.63;10.43;;;9.60;99.90;;;;;;5044843;28;20091;-61
2021/11/09 15:10:38;;;;;;;19.80;8.02;;;9.50;99.90;;;;;;5047195;28;20041;-59
2021/11/09 15:29:18;;;;;;;30.88;13.00;;;9.00;99.90;;;;;;5049331;28;20050;-62
2021/11/09 15:39:15;;;;;;;19.98;10.23;;;8.80;99.90;;;;;;5045366;28;20036;-60